Time;durP1;ratioP1;P1;durP2;ratioP2;P2;SDS_P1;SDS_P2;PMS_P1;PMS_P2;Temp;Humidity;BMP_temperature;BMP_pressure;BME280_temperature;BME280_humidity;BME280_pressure;Samples;Min_cycle;Max_cycle;Signal;HPM_P1;HPM_P2
2022/11/19 00:01:40;;;;;;;19.53;9.70;;;-4.10;99.90;;;;;;10187578;29;20285;-87
2022/11/19 00:06:42;;;;;;;17.97;10.10;;;-4.10;99.90;;;;;;10194379;29;20258;-87
2022/11/19 00:17:06;;;;;;;19.43;10.57;;;-4.20;99.90;;;;;;10204033;29;20206;-87
2022/11/19 00:22:08;;;;;;;15.13;8.60;;;-4.30;99.90;;;;;;10199447;29;20561;-87
2022/11/19 00:27:12;;;;;;;18.43;9.63;;;-4.30;99.90;;;;;;10214830;29;20222;-87
2022/11/19 00:32:14;;;;;;;42.17;12.97;;;-4.30;99.90;;;;;;10176500;29;20708;-87
2022/11/19 00:37:16;;;;;;;23.43;11.47;;;-4.40;99.90;;;;;;10175653;29;20242;-86
2022/11/19 00:42:20;;;;;;;28.80;12.33;;;-4.40;99.90;;;;;;10204075;29;20544;-87
2022/11/19 00:47:22;;;;;;;30.50;13.60;;;-4.60;99.90;;;;;;10241248;28;20588;-87
2022/11/19 00:52:25;;;;;;;20.17;9.70;;;-4.60;99.90;;;;;;10212488;29;20228;-87
2022/11/19 00:57:27;;;;;;;25.20;10.83;;;-4.70;99.90;;;;;;10232572;29;20230;-87
2022/11/19 01:02:30;;;;;;;19.03;9.57;;;-4.90;99.90;;;;;;10243786;29;20246;-86
2022/11/19 01:07:32;;;;;;;30.87;12.13;;;-5.00;99.90;;;;;;10267474;28;20211;-85
2022/11/19 01:13:33;;;;;;;41.03;21.20;;;-5.00;99.90;;;;;;10287927;28;20188;-86
2022/11/19 01:17:57;;;;;;;60.17;31.70;;;-5.00;99.90;;;;;;10301954;28;20181;-86
2022/11/19 01:23:00;;;;;;;41.70;21.00;;;;;;;;;;10268094;28;20190;-86
2022/11/19 01:28:03;;;;;;;28.37;16.97;;;;;;;;;;10222677;29;20242;-86
2022/11/19 01:33:06;;;;;;;16.73;10.27;;;-5.50;99.90;;;;;;10254231;28;20241;-86
2022/11/19 01:38:08;;;;;;;18.40;10.10;;;-5.60;99.90;;;;;;10249203;29;20253;-86
2022/11/19 01:43:12;;;;;;;19.03;11.57;;;;;;;;;;10232827;29;20182;-85
2022/11/19 01:48:20;;;;;;;18.70;10.50;;;;;;;;;;10281013;28;20254;-86
2022/11/19 01:53:25;;;;;;;24.93;11.10;;;;;;;;;;10260982;29;20188;-86
2022/11/19 01:58:31;;;;;;;17.47;10.47;;;-6.20;99.90;;;;;;10286257;29;20203;-87
2022/11/19 02:03:35;;;;;;;23.23;10.30;;;-6.00;99.90;;;;;;10266163;29;20188;-86
2022/11/19 02:08:46;;;;;;;28.30;12.57;;;-6.00;99.90;;;;;;10285892;29;20241;-86
2022/11/19 02:14:07;;;;;;;22.53;12.53;;;;;;;;;;10269062;29;20185;-87
2022/11/19 02:19:43;;;;;;;31.57;14.53;;;-6.30;99.90;;;;;;10268293;29;20184;-85
2022/11/19 02:24:49;;;;;;;35.03;17.43;;;-6.30;99.90;;;;;;10272800;28;20194;-85
2022/11/19 02:30:12;;;;;;;30.47;16.73;;;-6.30;99.90;;;;;;10246037;29;20215;-85
2022/11/19 02:35:33;;;;;;;40.53;19.47;;;;;;;;;;10266677;29;20214;-86
2022/11/19 02:40:41;;;;;;;31.53;16.47;;;-6.70;99.90;;;;;;10242410;29;20204;-87
2022/11/19 02:45:50;;;;;;;36.30;15.50;;;-6.60;99.90;;;;;;10217706;29;20226;-86
2022/11/19 02:50:57;;;;;;;32.80;14.30;;;-6.70;99.90;;;;;;10261697;29;20204;-87
2022/11/19 02:56:16;;;;;;;29.93;14.53;;;-6.60;99.90;;;;;;10263229;29;20217;-87
2022/11/19 03:06:41;;;;;;;23.20;12.60;;;-6.70;99.90;;;;;;10232026;29;20307;-87
2022/11/19 03:11:50;;;;;;;22.73;12.27;;;-6.80;99.90;;;;;;10231442;29;20219;-85
2022/11/19 03:17:02;;;;;;;25.73;14.03;;;-6.90;99.90;;;;;;10230579;29;20212;-86
2022/11/19 03:22:13;;;;;;;25.60;14.47;;;-6.90;99.90;;;;;;10231156;29;20201;-85
2022/11/19 03:27:22;;;;;;;25.47;12.50;;;-7.10;99.90;;;;;;10230922;29;20219;-86
2022/11/19 03:32:30;;;;;;;25.00;12.70;;;-7.10;99.90;;;;;;10216109;29;20219;-85
2022/11/19 03:37:37;;;;;;;23.30;13.27;;;-7.10;99.90;;;;;;10248980;29;20232;-86
2022/11/19 03:42:42;;;;;;;27.43;13.10;;;-6.90;99.90;;;;;;10269985;29;20205;-87
2022/11/19 03:47:48;;;;;;;20.83;11.67;;;-7.10;99.90;;;;;;10268865;29;20427;-87
2022/11/19 03:52:51;;;;;;;22.93;12.80;;;-7.20;99.90;;;;;;10236314;29;20203;-87
2022/11/19 03:57:59;;;;;;;25.60;14.93;;;-7.20;99.90;;;;;;10236075;29;20254;-86
2022/11/19 04:03:01;;;;;;;30.23;15.30;;;-7.30;99.90;;;;;;10231532;29;20207;-87
2022/11/19 04:08:04;;;;;;;26.03;13.20;;;-7.10;99.90;;;;;;10230148;29;20254;-87
2022/11/19 04:13:07;;;;;;;29.20;14.37;;;-7.10;99.90;;;;;;10227660;28;20235;-87
2022/11/19 04:18:09;;;;;;;32.07;14.13;;;;;;;;;;10215991;29;20235;-87
2022/11/19 04:23:12;;;;;;;26.03;13.37;;;-6.80;99.90;;;;;;10251051;29;20739;-86
2022/11/19 04:28:14;;;;;;;31.70;15.00;;;-7.40;99.90;;;;;;10173683;29;20217;-86
2022/11/19 04:33:17;;;;;;;27.30;14.23;;;-7.30;99.90;;;;;;10174060;29;20668;-86
2022/11/19 04:38:19;;;;;;;26.43;13.60;;;-7.20;99.90;;;;;;10188705;29;20280;-86
2022/11/19 04:43:22;;;;;;;30.87;14.53;;;-7.40;99.90;;;;;;10212637;29;20215;-86
2022/11/19 04:48:24;;;;;;;32.37;14.43;;;-7.30;99.90;;;;;;10213567;29;20223;-86
2022/11/19 04:53:27;;;;;;;28.20;13.03;;;-7.40;99.90;;;;;;10214092;29;20236;-87
2022/11/19 04:58:29;;;;;;;29.10;13.73;;;-7.40;99.90;;;;;;10213197;29;20200;-86
2022/11/19 05:03:32;;;;;;;27.77;13.03;;;-7.60;99.90;;;;;;10213044;29;20205;-86
2022/11/19 05:08:34;;;;;;;28.27;14.20;;;-7.60;99.90;;;;;;10211959;29;20231;-86
2022/11/19 05:13:37;;;;;;;31.93;14.00;;;-7.60;99.90;;;;;;10177025;29;20212;-86
2022/11/19 05:18:39;;;;;;;27.80;14.73;;;-7.60;99.90;;;;;;10202660;29;20258;-86
2022/11/19 05:23:42;;;;;;;30.80;14.40;;;-7.60;99.90;;;;;;10211948;29;20234;-86
2022/11/19 05:28:45;;;;;;;25.30;14.00;;;;;;;;;;10212226;29;20216;-87
2022/11/19 05:33:47;;;;;;;32.23;16.77;;;-7.70;99.90;;;;;;10210846;29;20199;-86
2022/11/19 05:38:49;;;;;;;38.93;19.23;;;-7.50;99.90;;;;;;10181238;29;20312;-85
2022/11/19 05:43:52;;;;;;;118.97;48.20;;;-7.40;99.90;;;;;;10179735;29;20543;-86
2022/11/19 05:48:54;;;;;;;79.83;35.03;;;-7.50;99.90;;;;;;10216370;29;20276;-85
2022/11/19 05:53:57;;;;;;;104.27;38.53;;;-7.30;99.90;;;;;;10258810;29;20199;-86
2022/11/19 05:59:00;;;;;;;87.97;37.70;;;-7.30;99.90;;;;;;10259987;29;20668;-86
2022/11/19 06:04:02;;;;;;;90.63;39.80;;;-7.30;99.90;;;;;;10274501;28;20266;-86
2022/11/19 06:09:08;;;;;;;85.50;37.73;;;-7.20;99.90;;;;;;10256184;28;20227;-86
2022/11/19 06:14:28;;;;;;;81.93;37.67;;;-7.20;99.90;;;;;;10192941;29;20181;-86
2022/11/19 06:19:31;;;;;;;65.90;31.87;;;-7.20;99.90;;;;;;10210171;29;20258;-86
2022/11/19 06:24:33;;;;;;;73.33;31.03;;;-7.00;99.90;;;;;;10234326;29;20216;-87
2022/11/19 06:29:36;;;;;;;64.23;28.50;;;-6.80;99.90;;;;;;10229766;29;20278;-86
2022/11/19 06:34:38;;;;;;;66.30;30.53;;;-6.80;99.90;;;;;;10231101;28;20205;-86
2022/11/19 06:39:41;;;;;;;69.73;29.60;;;-6.70;99.90;;;;;;10192301;29;20235;-86
2022/11/19 06:44:44;;;;;;;63.67;30.37;;;-6.40;99.90;;;;;;10217703;29;20197;-86
2022/11/19 06:49:46;;;;;;;64.80;30.10;;;-6.20;99.90;;;;;;10219667;28;20298;-86
2022/11/19 06:54:49;;;;;;;69.13;31.13;;;-6.10;99.90;;;;;;10178982;29;20202;-87
2022/11/19 06:59:51;;;;;;;73.53;32.77;;;-5.90;99.90;;;;;;10179296;29;20209;-86
2022/11/19 07:04:54;;;;;;;55.10;28.13;;;-5.70;99.90;;;;;;10178770;29;20230;-87
2022/11/19 07:09:56;;;;;;;78.40;35.33;;;-5.50;99.90;;;;;;10202531;29;20295;-86
2022/11/19 07:14:59;;;;;;;67.60;29.90;;;-5.30;99.90;;;;;;10218092;29;20198;-87
2022/11/19 07:20:07;;;;;;;59.73;28.77;;;-5.00;99.90;;;;;;10201486;29;20679;-87
2022/11/19 07:25:12;;;;;;;57.77;28.17;;;-4.80;99.90;;;;;;10217273;29;20202;-87
2022/11/19 07:30:16;;;;;;;65.07;30.07;;;-4.50;99.90;;;;;;10213738;29;20254;-86
2022/11/19 07:35:18;;;;;;;54.10;25.90;;;-4.20;99.90;;;;;;10211634;29;20262;-87
2022/11/19 07:40:21;;;;;;;53.50;28.03;;;-3.90;99.90;;;;;;10212840;29;20214;-86
2022/11/19 07:45:24;;;;;;;58.10;28.23;;;-3.80;99.90;;;;;;10211055;29;20210;-86
2022/11/19 07:50:26;;;;;;;54.33;27.20;;;-3.70;99.90;;;;;;10217776;29;20265;-86
2022/11/19 07:55:28;;;;;;;57.03;23.40;;;-3.60;99.90;;;;;;10211434;29;20234;-86
2022/11/19 08:00:31;;;;;;;47.13;22.17;;;-3.40;99.90;;;;;;10209062;29;20211;-86
2022/11/19 08:05:37;;;;;;;44.43;20.50;;;-3.40;99.90;;;;;;10213007;29;20286;-86
2022/11/19 08:10:42;;;;;;;36.83;18.90;;;-3.10;99.90;;;;;;10222265;29;20245;-87
2022/11/19 08:15:44;;;;;;;39.67;19.77;;;-3.30;99.90;;;;;;10242033;28;20222;-87
2022/11/19 08:20:47;;;;;;;42.03;21.00;;;-3.30;99.90;;;;;;10217631;29;20662;-86
2022/11/19 08:25:51;;;;;;;41.07;21.27;;;-3.20;99.90;;;;;;10186564;28;20267;-87
2022/11/19 08:30:54;;;;;;;42.63;21.20;;;-3.00;99.90;;;;;;10184532;29;20259;-86
2022/11/19 08:35:57;;;;;;;31.97;18.47;;;-2.70;99.90;;;;;;10210097;29;20257;-87
2022/11/19 08:46:25;;;;;;;33.73;17.30;;;-2.50;99.90;;;;;;10165610;29;20347;-87
2022/11/19 08:51:27;;;;;;;35.60;19.13;;;-2.30;99.90;;;;;;10152442;29;20298;-87
2022/11/19 08:56:30;;;;;;;42.43;20.83;;;-2.40;99.90;;;;;;10149174;29;20251;-87
2022/11/19 09:01:32;;;;;;;37.50;18.70;;;-2.20;99.90;;;;;;10164662;29;20243;-87
2022/11/19 09:06:35;;;;;;;41.13;20.43;;;-2.10;99.90;;;;;;10164401;29;20686;-87
2022/11/19 09:11:37;;;;;;;41.70;20.63;;;-1.90;99.90;;;;;;10175137;29;20262;-87
2022/11/19 09:16:44;;;;;;;41.03;20.30;;;-1.70;99.90;;;;;;10188393;29;20351;-87
2022/11/19 09:21:47;;;;;;;38.93;19.03;;;-1.60;99.90;;;;;;10182631;29;20270;-87
2022/11/19 09:26:49;;;;;;;39.97;17.63;;;-1.30;99.90;;;;;;10216737;29;20250;-87
2022/11/19 09:31:54;;;;;;;33.77;18.67;;;-1.00;99.90;;;;;;10193730;29;20235;-87
2022/11/19 09:36:57;;;;;;;41.27;19.97;;;-1.00;99.90;;;;;;10198987;29;20227;-88
2022/11/19 09:42:34;;;;;;;36.30;17.80;;;-0.90;99.90;;;;;;10185679;29;20207;-87
2022/11/19 09:47:58;;;;;;;36.03;19.47;;;-0.80;99.90;;;;;;10192129;29;20266;-87
2022/11/19 09:53:30;;;;;;;42.70;21.67;;;-0.80;99.90;;;;;;10188628;29;20234;-86
2022/11/19 09:58:42;;;;;;;33.00;17.67;;;-0.20;99.90;;;;;;10206528;29;20223;-87
2022/11/19 10:03:49;;;;;;;29.53;15.77;;;-0.40;99.90;;;;;;10154211;29;20231;-87
2022/11/19 10:09:20;;;;;;;35.07;17.07;;;0.60;99.90;;;;;;10167783;29;20263;-87
2022/11/19 10:14:52;;;;;;;28.03;15.87;;;0.60;99.90;;;;;;10174872;29;20285;-88
2022/11/19 10:20:32;;;;;;;24.97;14.90;;;0.40;99.90;;;;;;10113022;29;20245;-87
2022/11/19 10:25:39;;;;;;;28.93;14.30;;;0.50;99.90;;;;;;10196554;29;20209;-88
2022/11/19 10:30:51;;;;;;;24.47;14.40;;;0.70;99.90;;;;;;10173013;29;20846;-87
2022/11/19 10:35:58;;;;;;;29.23;15.17;;;0.30;99.90;;;;;;10176442;29;20287;-87
2022/11/19 10:41:10;;;;;;;29.90;14.63;;;0.20;99.90;;;;;;10167088;29;20209;-87
2022/11/19 10:46:18;;;;;;;26.67;14.07;;;0.40;99.90;;;;;;10186408;29;20289;-88
2022/11/19 10:51:26;;;;;;;25.53;13.87;;;0.30;99.90;;;;;;10190735;29;20314;-87
2022/11/19 10:56:38;;;;;;;20.53;12.40;;;3.40;99.90;;;;;;10153398;29;20223;-87
2022/11/19 11:01:44;;;;;;;26.43;15.13;;;1.60;99.90;;;;;;10165642;29;20240;-87
2022/11/19 11:07:04;;;;;;;21.13;13.43;;;2.50;99.90;;;;;;10170591;29;20230;-88
2022/11/19 11:17:37;;;;;;;25.40;14.10;;;1.20;99.90;;;;;;10212526;29;20905;-89
2022/11/19 11:22:47;;;;;;;26.47;15.17;;;3.80;99.90;;;;;;10212958;29;20257;-88
2022/11/19 11:28:03;;;;;;;23.60;14.60;;;2.30;99.40;;;;;;10155426;29;20690;-88
2022/11/19 11:33:24;;;;;;;29.77;15.13;;;2.70;96.40;;;;;;10206506;29;20238;-89
2022/11/19 11:38:28;;;;;;;30.63;15.90;;;1.50;99.90;;;;;;10203376;29;20333;-89
2022/11/19 11:43:33;;;;;;;21.27;13.40;;;1.20;99.90;;;;;;10179302;29;20232;-89
2022/11/19 11:48:43;;;;;;;21.67;12.30;;;1.20;99.90;;;;;;10200971;29;20737;-89
2022/11/19 11:54:03;;;;;;;28.03;13.20;;;0.80;99.90;;;;;;10173185;29;20240;-90
2022/11/19 11:59:26;;;;;;;21.73;12.17;;;1.80;99.90;;;;;;10171028;29;20719;-89
2022/11/19 12:04:29;;;;;;;21.23;11.47;;;0.70;99.70;;;;;;10179557;29;20210;-89
2022/11/19 12:09:41;;;;;;;17.47;10.93;;;1.10;98.20;;;;;;10211336;29;20711;-89
2022/11/19 12:15:02;;;;;;;26.23;14.57;;;0.90;99.90;;;;;;10187271;29;20328;-89
2022/11/19 12:20:35;;;;;;;25.70;12.07;;;0.70;99.90;;;;;;10165935;29;20364;-88
2022/11/19 12:25:57;;;;;;;20.77;12.20;;;2.60;96.40;;;;;;10167411;29;20244;-88
2022/11/19 12:31:34;;;;;;;17.80;10.37;;;8.10;99.90;;;;;;10158977;29;20330;-88
2022/11/19 12:36:48;;;;;;;21.77;11.93;;;9.90;94.50;;;;;;10165197;29;20263;-88
2022/11/19 12:42:12;;;;;;;18.73;9.53;;;9.90;99.90;;;;;;10167033;29;20243;-88
2022/11/19 12:47:41;;;;;;;17.80;10.57;;;4.20;97.40;;;;;;10175997;29;20247;-89
2022/11/19 12:53:17;;;;;;;19.03;11.67;;;3.60;99.90;;;;;;10190854;23;20802;-81
2022/11/19 12:58:52;;;;;;;15.27;8.47;;;7.20;96.20;;;;;;10213534;29;20226;-82
2022/11/19 13:04:04;;;;;;;26.87;14.17;;;8.20;99.90;;;;;;10234191;29;20258;-82
2022/11/19 22:36:39;;;;;;;28.70;16.30;;;0.50;99.90;;;;;;10487872;28;20925;-82
2022/11/19 22:41:41;;;;;;;34.67;17.50;;;3.90;99.90;;;;;;10466172;28;20307;-83
2022/11/19 22:46:44;;;;;;;72.23;26.67;;;4.80;99.90;;;;;;10436880;28;20265;-83
2022/11/19 22:51:48;;;;;;;187.90;63.30;;;5.70;99.90;;;;;;10442983;28;20616;-84
2022/11/19 22:56:51;;;;;;;67.00;29.23;;;5.80;99.90;;;;;;10444893;28;20735;-84
2022/11/19 23:01:53;;;;;;;204.13;73.00;;;5.60;99.90;;;;;;10445148;28;20197;-84
2022/11/19 23:06:55;;;;;;;165.43;55.00;;;5.50;99.90;;;;;;10442645;28;20267;-84
2022/11/19 23:17:19;;;;;;;25.33;14.73;;;6.10;99.90;;;;;;10443494;28;20735;-83
2022/11/19 23:22:21;;;;;;;22.43;13.40;;;6.30;99.90;;;;;;10443384;28;20203;-82
2022/11/19 23:27:24;;;;;;;29.67;14.67;;;2.70;99.90;;;;;;10442842;28;20212;-84
2022/11/19 23:32:28;;;;;;;21.93;12.87;;;1.30;99.90;;;;;;10426485;28;20235;-85
2022/11/19 23:37:30;;;;;;;92.47;29.37;;;0.60;99.90;;;;;;10444036;28;20254;-84
2022/11/19 23:42:33;;;;;;;24.63;15.05;;;0.90;99.90;;;;;;10435705;28;20878;-83
2022/11/19 23:47:36;;;;;;;22.00;12.13;;;0.40;99.90;;;;;;10414807;28;20207;-84
2022/11/19 23:52:39;;;;;;;20.40;12.07;;;0.00;99.90;;;;;;10414078;28;20615;-82
2022/11/19 23:57:41;;;;;;;19.57;12.67;;;-0.30;99.90;;;;;;10414011;28;20232;-82
